Time;durP1;ratioP1;P1;durP2;ratioP2;P2;SDS_P1;SDS_P2;PMS_P1;PMS_P2;Temp;Humidity;BMP_temperature;BMP_pressure;BME280_temperature;BME280_humidity;BME280_pressure;Samples;Min_cycle;Max_cycle;Signal;HPM_P1;HPM_P2
2023/10/17 00:04:27;;;;;;;23.65;11.15;;;;;;;4.57;100.00;101217.77;4823584;57;1142963;-79
2023/10/17 00:09:29;;;;;;;23.05;11.68;;;;;;;4.61;100.00;101225.01;4895334;57;1140833;-76
2023/10/17 00:14:44;;;;;;;21.68;10.70;;;;;;;4.61;100.00;101223.70;4790507;59;1141000;-78
2023/10/17 00:19:44;;;;;;;24.97;11.20;;;;;;;4.57;100.00;101226.08;4934304;58;1141147;-86
2023/10/17 00:25:09;;;;;;;25.27;11.43;;;;;;;4.50;100.00;101223.30;4790523;59;1141067;-75
2023/10/17 00:30:05;;;;;;;25.77;13.50;;;;;;;4.40;100.00;101220.22;4760243;59;1141301;-78
2023/10/17 00:35:14;;;;;;;25.12;11.53;;;;;;;4.32;100.00;101217.50;4756970;59;1141300;-75
2023/10/17 00:45:49;;;;;;;;;;;;;;;4.34;100.00;101222.22;4670925;61;1140956;-76
2023/10/17 00:51:07;;;;;;;29.73;14.17;;;;;;;4.37;100.00;101212.94;4700647;60;974188;-75
2023/10/17 00:56:02;;;;;;;35.23;14.40;;;;;;;4.35;100.00;101217.38;4639906;61;1139504;-79
2023/10/17 01:01:20;;;;;;;42.35;15.90;;;;;;;4.27;100.00;101216.40;4640484;61;1141035;-70
2023/10/17 01:11:40;;;;;;;44.73;17.33;;;;;;;4.12;100.00;101218.33;4683878;60;1140889;-87
2023/10/17 01:16:47;;;;;;;43.27;15.43;;;;;;;4.05;100.00;101219.01;4596748;62;1141197;-80
2023/10/17 01:21:52;;;;;;;35.57;14.60;;;;;;;4.05;100.00;101219.46;4692991;61;1141057;-73
2023/10/17 01:26:59;;;;;;;35.53;14.67;;;;;;;4.04;100.00;101221.23;4806849;60;1141194;-76
2023/10/17 01:32:08;;;;;;;31.70;12.43;;;;;;;4.07;100.00;101226.80;4791056;58;1141086;-73
2023/10/17 01:37:12;;;;;;;32.73;12.90;;;;;;;4.06;100.00;101223.79;4792117;58;1140753;-74
2023/10/17 01:42:20;;;;;;;25.68;11.15;;;;;;;4.05;100.00;101228.62;4829558;58;1141373;-77
2023/10/17 01:47:26;;;;;;;19.98;8.75;;;;;;;4.00;100.00;101230.11;4923573;58;1140958;-78
2023/10/17 01:52:31;;;;;;;20.60;8.90;;;;;;;3.95;100.00;101222.91;4911857;57;1138782;-78
2023/10/17 01:57:43;;;;;;;22.87;9.93;;;;;;;3.98;100.00;101228.00;4918933;57;1138953;-76
2023/10/17 02:02:45;;;;;;;21.97;9.53;;;;;;;3.96;100.00;101226.37;4999552;57;1138895;-77
2023/10/17 02:07:51;;;;;;;28.70;10.40;;;;;;;3.95;100.00;101223.36;4979695;57;1139254;-82
2023/10/17 02:12:57;;;;;;;43.80;11.37;;;;;;;3.90;100.00;101218.30;4934930;57;1142363;-70
2023/10/17 02:18:12;;;;;;;53.60;11.30;;;;;;;3.75;100.00;101215.82;4878073;59;1140850;-81
2023/10/17 02:23:19;;;;;;;51.10;12.70;;;;;;;3.66;100.00;101212.71;4865431;59;1141093;-73
2023/10/17 02:28:22;;;;;;;46.65;10.93;;;;;;;3.68;100.00;101213.02;4882393;57;1141027;-73
2023/10/17 02:33:29;;;;;;;76.67;10.10;;;;;;;3.84;100.00;101225.06;4793049;59;1140608;-66
2023/10/17 02:38:36;;;;;;;57.80;10.67;;;;;;;3.95;100.00;101226.84;4895168;57;1140984;-78
2023/10/17 02:43:45;;;;;;;52.33;9.07;;;;;;;3.90;100.00;101224.84;4744406;59;1141006;-79
2023/10/17 02:48:51;;;;;;;38.87;7.37;;;;;;;3.83;100.00;101230.75;4738516;59;1141701;-73
2023/10/17 02:53:58;;;;;;;83.53;9.87;;;;;;;3.71;100.00;101234.30;4819739;57;1138953;-74
2023/10/17 02:59:12;;;;;;;131.07;11.33;;;;;;;3.54;100.00;101224.47;4826787;59;1138694;-77
2023/10/17 03:04:18;;;;;;;44.48;7.90;;;;;;;3.50;100.00;101234.21;4716601;60;1142983;-75
2023/10/17 03:19:45;;;;;;;23.73;6.90;;;;;;;3.39;100.00;101241.58;4783451;59;1138804;-79
2023/10/17 03:25:01;;;;;;;112.80;8.57;;;;;;;3.39;100.00;101242.03;4791840;58;1139054;-73
2023/10/17 03:30:10;;;;;;;22.17;6.00;;;;;;;3.36;100.00;101244.78;4723625;60;1140990;-74
2023/10/17 03:35:20;;;;;;;16.35;5.83;;;;;;;3.33;100.00;101248.80;4759832;58;1138852;-86
2023/10/17 03:40:50;;;;;;;45.58;8.53;;;;;;;3.21;100.00;101247.45;4812503;58;1138870;-74
2023/10/17 03:46:03;;;;;;;43.07;7.53;;;;;;;3.17;100.00;101250.66;4816320;57;1138987;-77
2023/10/17 03:56:18;;;;;;;28.40;7.37;;;;;;;3.27;100.00;101245.95;4881847;57;1138964;-80
2023/10/17 04:01:22;;;;;;;41.02;6.80;;;;;;;3.29;100.00;101248.05;4906118;57;1139055;-67
2023/10/17 04:06:39;;;;;;;44.00;6.67;;;;;;;3.23;100.00;101254.80;4904893;56;1138878;-73
2023/10/17 04:11:39;;;;;;;33.73;6.70;;;;;;;3.19;100.00;101253.22;4919054;57;1138820;-82
2023/10/17 04:16:46;;;;;;;41.03;8.53;;;;;;;3.17;100.00;101248.05;4865564;59;1138764;-72
2023/10/17 04:22:07;;;;;;;21.53;6.97;;;;;;;3.17;100.00;101245.88;4789395;59;1138784;-79
2023/10/17 04:32:20;;;;;;;37.55;7.40;;;;;;;3.30;100.00;101246.30;4791416;59;1139956;-76
2023/10/17 04:37:38;;;;;;;25.95;6.12;;;;;;;3.28;100.00;101244.19;4908736;57;1138883;-72
2023/10/17 04:48:08;;;;;;;13.90;7.13;;;;;;;3.22;100.00;101249.62;4889331;58;1138669;-85
2023/10/17 04:52:57;;;;;;;29.98;6.87;;;;;;;3.20;100.00;101262.77;4940297;57;1138879;-80
2023/10/17 04:58:30;;;;;;;96.50;7.10;;;;;;;3.10;100.00;101270.06;4792021;57;1139118;-73
2023/10/17 05:03:27;;;;;;;32.27;6.40;;;;;;;3.03;100.00;101267.27;4932119;57;1138896;-73
2023/10/17 05:08:32;;;;;;;27.67;6.50;;;;;;;2.95;100.00;101278.88;4926177;57;1139302;-74
2023/10/17 06:18:26;;;;;;;39.77;12.77;;;;;;;2.80;100.00;101325.96;4887770;57;1138832;-68
2023/10/17 06:30:04;;;;;;;42.47;4.90;;;;;;;2.96;100.00;101334.15;4735372;59;1138765;-67
2023/10/17 06:34:04;;;;;;;32.77;5.80;;;;;;;2.92;100.00;101336.00;4739436;59;1138857;-68
2023/10/17 06:39:15;;;;;;;36.07;8.67;;;;;;;2.87;100.00;101335.33;4808071;58;1139084;-79
2023/10/17 06:44:24;;;;;;;52.83;10.00;;;;;;;2.85;100.00;101339.73;4825461;58;1260007;-73
2023/10/17 06:54:51;;;;;;;30.33;12.30;;;;;;;2.85;100.00;101342.35;4701672;60;1138961;-79
2023/10/17 07:00:01;;;;;;;14.03;6.27;;;;;;;2.87;100.00;101348.39;4765185;59;1141560;-79
2023/10/17 07:05:04;;;;;;;8.03;5.70;;;;;;;2.87;100.00;101347.08;4778598;58;1138869;-78
2023/10/17 07:10:17;;;;;;;47.67;6.37;;;;;;;2.94;100.00;101360.33;4823255;57;1136933;-79
2023/10/17 07:15:25;;;;;;;12.77;7.03;;;;;;;2.95;100.00;101358.12;4830016;58;1138807;-79
2023/10/17 07:25:56;;;;;;;6.90;5.53;;;;;;;3.25;100.00;101361.47;4759371;59;1138931;-86
2023/10/17 07:31:01;;;;;;;9.90;6.10;;;;;;;3.39;100.00;101351.39;4915560;57;1136987;-82
2023/10/17 07:36:20;;;;;;;55.43;9.00;;;;;;;3.39;100.00;101347.92;4904099;57;1137317;-77
2023/10/17 07:41:36;;;;;;;28.27;7.05;;;;;;;3.38;100.00;101358.83;4904668;57;1139355;-79
2023/10/17 07:46:26;;;;;;;18.80;6.23;;;;;;;3.43;100.00;101359.53;4699481;59;1138797;-80
2023/10/17 07:51:32;;;;;;;21.55;11.22;;;;;;;3.52;100.00;101357.04;4701239;59;1138894;-76
2023/10/17 07:56:38;;;;;;;15.57;6.97;;;;;;;3.56;100.00;101356.03;4937029;57;1140922;-73
2023/10/17 08:01:45;;;;;;;18.12;8.18;;;;;;;3.57;100.00;101359.05;4916198;57;1138905;-76
2023/10/17 08:06:50;;;;;;;17.80;7.73;;;;;;;3.59;100.00;101366.39;4898677;58;1138935;-77
2023/10/17 08:11:59;;;;;;;20.73;7.40;;;;;;;3.69;100.00;101361.23;5008159;56;1138943;-72
2023/10/17 08:17:05;;;;;;;18.20;8.17;;;;;;;3.80;100.00;101358.25;4715853;59;1139115;-79
2023/10/17 08:22:17;;;;;;;28.43;10.60;;;;;;;3.91;100.00;101361.77;4849062;57;1138996;-85
2023/10/17 08:32:38;;;;;;;8.97;6.53;;;;;;;4.11;100.00;101365.37;4885320;57;1138926;-82
2023/10/17 08:37:45;;;;;;;15.63;8.17;;;;;;;4.23;100.00;101367.97;4709205;59;1137067;-78
2023/10/17 08:42:56;;;;;;;16.57;10.83;;;;;;;4.36;100.00;101365.73;4734498;60;1138704;-84
2023/10/17 08:48:05;;;;;;;15.27;8.93;;;;;;;4.60;100.00;101362.16;4728898;59;1143002;-68
2023/10/17 08:53:31;;;;;;;12.80;7.33;;;;;;;4.91;100.00;101361.32;4749047;59;1141021;-67
2023/10/17 08:58:32;;;;;;;17.32;8.78;;;;;;;5.15;100.00;101347.67;4750774;59;1148620;-71
2023/10/17 09:03:37;;;;;;;12.60;7.10;;;;;;;5.48;100.00;101353.27;4859952;58;1141386;-68
2023/10/17 09:08:52;;;;;;;12.83;7.53;;;;;;;5.80;100.00;101351.00;4811613;57;1140757;-68
2023/10/17 09:14:16;;;;;;;9.87;7.20;;;;;;;6.07;100.00;101351.09;4745138;59;1140843;-68
2023/10/17 09:19:25;;;;;;;11.43;6.62;;;;;;;6.39;100.00;101356.18;4665186;60;1138699;-71
2023/10/17 09:24:36;;;;;;;10.38;5.75;;;;;;;6.63;100.00;101355.00;4750007;60;1141053;-67
2023/10/17 09:29:55;;;;;;;5.83;4.70;;;;;;;6.92;100.00;101357.53;4881636;58;1140949;-69
2023/10/17 09:35:18;;;;;;;9.67;4.90;;;;;;;7.33;100.00;101336.22;4882923;58;1138925;-67
2023/10/17 09:40:33;;;;;;;10.57;5.93;;;;;;;7.56;100.00;101335.02;4902085;58;1139136;-71
2023/10/17 09:45:41;;;;;;;13.13;8.77;;;;;;;7.56;100.00;101335.02;4884110;58;1141032;-67
2023/10/17 09:50:48;;;;;;;9.40;5.63;;;;;;;7.72;100.00;101331.50;4912044;57;1140964;-68
2023/10/17 09:55:55;;;;;;;16.70;7.23;;;;;;;7.89;100.00;101327.12;4894166;57;1138844;-68
2023/10/17 10:01:13;;;;;;;13.33;4.43;;;;;;;8.07;100.00;101329.63;4851905;58;1140919;-69
2023/10/17 10:06:32;;;;;;;15.03;6.03;;;;;;;8.19;100.00;101331.20;4785704;59;1141010;-70
2023/10/17 10:11:55;;;;;;;7.60;3.87;;;;;;;8.36;100.00;101332.02;4871296;57;1141010;-85
2023/10/17 10:17:05;;;;;;;27.07;8.40;;;;;;;8.56;100.00;101329.56;4915107;57;1138586;-71
2023/10/17 10:22:14;;;;;;;5.90;2.67;;;;;;;8.77;100.00;101322.23;4899092;57;1140952;-78
2023/10/17 10:27:26;;;;;;;10.53;3.10;;;;;;;8.94;100.00;101312.88;4885918;58;1138985;-74
2023/10/17 10:32:43;;;;;;;9.53;2.25;;;;;;;9.05;100.00;101309.14;4807485;58;1141142;-79
2023/10/17 10:37:59;;;;;;;9.43;2.83;;;;;;;9.03;100.00;101310.16;4916447;58;1138947;-77
2023/10/17 10:43:04;;;;;;;;;;;;;;;9.16;100.00;101309.38;4892016;58;1136637;-82
2023/10/17 10:48:15;;;;;;;7.30;1.40;;;;;;;9.42;100.00;101305.64;4839601;58;978322;-78
2023/10/17 10:53:33;;;;;;;7.30;1.63;;;;;;;9.57;100.00;101281.42;4753015;59;1136982;-75
2023/10/17 10:58:55;;;;;;;8.77;3.47;;;;;;;9.69;100.00;101302.64;4768162;60;1138990;-72
2023/10/17 11:03:59;;;;;;;5.57;1.80;;;;;;;9.55;100.00;101290.75;4787178;59;1138890;-69
2023/10/17 11:09:09;;;;;;;6.50;2.33;;;;;;;9.58;100.00;101284.44;4761500;59;1139021;-70
2023/10/17 11:14:17;;;;;;;16.80;4.27;;;;;;;9.94;100.00;101274.21;4724700;59;1138866;-67
2023/10/17 11:19:23;;;;;;;6.80;2.63;;;;;;;10.23;100.00;101270.25;4730451;59;1141132;-70
2023/10/17 11:24:29;;;;;;;10.07;2.00;;;;;;;10.13;100.00;101265.50;4775117;59;1239722;-66
2023/10/17 11:29:35;;;;;;;5.03;1.90;;;;;;;10.23;100.00;101260.53;4747276;59;1143081;-67
2023/10/17 11:34:46;;;;;;;7.17;2.50;;;;;;;10.28;100.00;101264.17;4840523;57;1141120;-71
2023/10/17 11:39:51;;;;;;;2.70;1.77;;;;;;;10.42;100.00;101252.23;4892182;58;1140798;-79
2023/10/17 11:44:56;;;;;;;6.73;2.70;;;;;;;10.30;100.00;101247.27;4901311;57;1141132;-85
2023/10/17 11:50:02;;;;;;;9.60;2.97;;;;;;;10.37;100.00;101244.62;4772646;59;1140799;-74
2023/10/17 11:55:16;;;;;;;2.73;1.37;;;;;;;10.41;100.00;101243.45;4718129;60;1224208;-74
2023/10/17 12:00:26;;;;;;;8.23;1.70;;;;;;;10.32;100.00;101232.63;4788272;59;1140856;-71
2023/10/17 12:05:35;;;;;;;2.83;1.30;;;;;;;10.11;100.00;101232.18;4781912;60;1140892;-70
2023/10/17 12:10:42;;;;;;;5.67;2.10;;;;;;;10.26;100.00;101222.44;4762658;59;1140922;-76
2023/10/17 12:15:47;;;;;;;3.30;1.63;;;;;;;10.66;100.00;101211.42;4894156;57;1164463;-76
2023/10/17 12:20:55;;;;;;;7.77;2.33;;;;;;;11.08;100.00;101199.25;4907365;57;1140934;-74
2023/10/17 12:26:19;;;;;;;1.80;1.10;;;;;;;11.24;100.00;101200.36;4793845;58;1140995;-76
2023/10/17 12:31:23;;;;;;;7.97;4.57;;;;;;;11.55;100.00;101205.20;4792666;58;1141622;-76
2023/10/17 12:36:30;;;;;;;5.00;1.30;;;;;;;11.79;100.00;101201.30;4808640;59;1140848;-76
2023/10/17 12:41:36;;;;;;;5.23;2.07;;;;;;;11.91;100.00;101205.75;4919927;58;1248249;-79
2023/10/17 12:46:43;;;;;;;3.20;1.30;;;;;;;12.02;100.00;101195.68;4716819;59;1246368;-76
2023/10/17 12:51:48;;;;;;;6.20;1.53;;;;;;;12.00;100.00;101186.98;4782969;60;1141654;-70
2023/10/17 12:56:54;;;;;;;5.83;1.50;;;;;;;11.98;100.00;101188.42;4896149;57;1141610;-77
2023/10/17 13:02:00;;;;;;;2.92;1.70;;;;;;;12.10;100.00;101182.70;4805720;59;1258643;-77
2023/10/17 13:07:05;;;;;;;8.63;2.40;;;;;;;12.27;100.00;101183.63;4928252;57;1258449;-73
2023/10/17 13:12:11;;;;;;;8.60;3.20;;;;;;;12.47;100.00;101179.98;4756376;58;1258895;-75
2023/10/17 13:17:18;;;;;;;3.50;1.57;;;;;;;12.67;100.00;101180.66;4885611;57;1250713;-78
2023/10/17 13:22:24;;;;;;;4.40;1.80;;;;;;;12.78;100.00;101182.48;4909808;58;1259015;-75
2023/10/17 13:27:29;;;;;;;3.72;1.85;;;;;;;12.80;100.00;101171.28;4775000;58;1257752;-74
2023/10/17 13:32:35;;;;;;;8.53;3.02;;;;;;;12.61;100.00;101175.80;4780535;58;1256665;-80
2023/10/17 13:37:51;;;;;;;6.17;1.80;;;;;;;12.16;100.00;101161.04;4865977;57;1241686;-74
2023/10/17 13:42:54;;;;;;;6.73;2.07;;;;;;;11.83;100.00;101160.38;4786288;59;1140941;-76
2023/10/17 13:47:56;;;;;;;7.33;3.50;;;;;;;11.58;100.00;101155.13;4749343;59;1255536;-79
2023/10/17 13:53:09;;;;;;;9.35;3.40;;;;;;;11.45;100.00;101155.16;4711433;59;1254471;-76
2023/10/17 13:58:16;;;;;;;9.10;3.40;;;;;;;11.42;100.00;101155.85;4790784;58;1141376;-73
2023/10/17 14:03:22;;;;;;;9.38;3.00;;;;;;;11.66;100.00;101155.89;4791590;59;1140977;-72
2023/10/17 14:08:34;;;;;;;6.43;2.10;;;;;;;11.89;100.00;101145.84;4670155;59;1141064;-77
2023/10/17 14:13:38;;;;;;;8.33;4.00;;;;;;;11.81;100.00;101138.91;4646221;61;1140981;-76
2023/10/17 14:19:02;;;;;;;10.95;3.92;;;;;;;11.68;100.00;101130.98;4871779;58;1259037;-79
2023/10/17 14:24:04;;;;;;;9.90;1.63;;;;;;;11.74;100.00;101135.00;4882869;57;1143554;-77
2023/10/17 14:29:07;;;;;;;5.87;1.50;;;;;;;11.70;100.00;101135.70;4852842;58;1140917;-78
2023/10/17 14:34:13;;;;;;;5.67;1.97;;;;;;;12.14;100.00;101132.46;4779395;58;1141040;-78
2023/10/17 14:39:20;;;;;;;6.80;2.97;;;;;;;12.57;100.00;101135.37;4836499;57;1140947;-72
2023/10/17 14:44:29;;;;;;;5.90;3.02;;;;;;;12.18;100.00;101135.26;4737689;58;1141193;-80
2023/10/17 14:49:35;;;;;;;2.85;1.87;;;;;;;11.83;100.00;101125.08;4728617;59;1141097;-74
2023/10/17 14:54:42;;;;;;;3.80;2.17;;;;;;;11.54;100.00;101125.83;4913255;57;1141216;-83
2023/10/17 14:59:47;;;;;;;8.77;3.27;;;;;;;11.35;100.00;101128.94;4789734;58;1140904;-83
2023/10/17 15:04:53;;;;;;;6.07;3.17;;;;;;;11.18;100.00;101122.66;4808724;59;1140969;-82
2023/10/17 15:09:59;;;;;;;8.70;3.57;;;;;;;11.09;100.00;101123.33;4891777;58;1140998;-78
2023/10/17 15:15:05;;;;;;;8.83;3.53;;;;;;;11.01;100.00;101121.67;4789597;59;1141219;-74
2023/10/17 15:20:12;;;;;;;10.43;3.87;;;;;;;10.94;100.00;101122.59;4929605;57;1141048;-78
2023/10/17 15:25:19;;;;;;;9.37;3.90;;;;;;;10.90;100.00;101125.08;4792903;60;1143125;-73
2023/10/17 15:30:25;;;;;;;7.20;3.37;;;;;;;10.82;100.00;101127.42;4966882;57;1141056;-77
2023/10/17 15:35:31;;;;;;;13.93;3.45;;;;;;;10.67;100.00;101131.97;4866504;59;1141001;-71
2023/10/17 15:40:36;;;;;;;8.65;3.12;;;;;;;10.49;100.00;101132.73;5002278;57;1142825;-72
2023/10/17 15:45:50;;;;;;;7.20;3.80;;;;;;;10.20;100.00;101133.36;4858662;59;1141237;-77
2023/10/17 15:50:58;;;;;;;7.03;2.73;;;;;;;10.20;100.00;101133.36;4911152;57;1141079;-77
2023/10/17 15:56:04;;;;;;;7.00;2.90;;;;;;;10.09;100.00;101131.84;4809763;60;1141281;-75
2023/10/17 16:01:12;;;;;;;7.57;2.60;;;;;;;9.85;100.00;101126.84;4722903;60;1141018;-74
2023/10/17 16:06:18;;;;;;;7.87;2.63;;;;;;;9.59;100.00;101132.50;4805418;59;1136965;-81
2023/10/17 16:11:23;;;;;;;23.37;6.23;;;;;;;9.50;100.00;101129.95;4926971;57;1255197;-76
2023/10/17 16:16:30;;;;;;;41.10;15.63;;;;;;;9.57;100.00;101136.17;4736649;60;1139049;-82
2023/10/17 16:21:35;;;;;;;392.77;156.17;;;;;;;9.56;100.00;101137.97;4824177;58;1140877;-78
2023/10/17 16:26:41;;;;;;;388.37;159.60;;;;;;;9.55;100.00;101147.30;4778534;58;1145142;-72
2023/10/17 16:31:50;;;;;;;202.33;78.77;;;;;;;9.49;100.00;101148.53;4804523;59;1145281;-76
2023/10/17 16:36:54;;;;;;;354.73;121.43;;;;;;;9.38;100.00;101151.84;4790318;59;1143015;-80
2023/10/17 16:42:00;;;;;;;189.37;66.43;;;;;;;9.30;100.00;101155.92;4793120;59;1145382;-76
2023/10/17 16:47:06;;;;;;;126.73;38.97;;;;;;;9.20;100.00;101151.67;4931677;58;1143019;-82
2023/10/17 16:52:12;;;;;;;122.47;44.55;;;;;;;9.07;100.00;101151.58;4790402;58;1145294;-69
2023/10/17 16:57:20;;;;;;;116.70;50.43;;;;;;;9.04;100.00;101155.72;4892285;57;1145334;-70
2023/10/17 17:02:26;;;;;;;156.35;61.08;;;;;;;9.02;100.00;101152.32;4947471;57;1150300;-70
2023/10/17 17:07:31;;;;;;;126.27;60.07;;;;;;;8.96;100.00;101147.44;4931093;57;1145321;-72
2023/10/17 17:12:37;;;;;;;117.28;49.08;;;;;;;8.90;100.00;101143.84;4665908;58;1145055;-75
2023/10/17 17:17:43;;;;;;;79.17;33.10;;;;;;;8.88;100.00;101139.13;4829873;57;1144947;-79
2023/10/17 17:22:52;;;;;;;94.72;43.20;;;;;;;8.87;100.00;101141.38;4972590;57;1141187;-73
2023/10/17 17:27:56;;;;;;;101.07;42.40;;;;;;;8.88;100.00;101143.08;4948104;57;1140988;-77
2023/10/17 17:33:02;;;;;;;98.77;42.10;;;;;;;8.84;100.00;101140.74;4750928;59;1143134;-75
2023/10/17 17:38:08;;;;;;;91.97;40.60;;;;;;;8.79;100.00;101143.64;4701965;60;1143089;-85
2023/10/17 17:43:14;;;;;;;98.23;48.97;;;;;;;8.79;100.00;101139.22;4712594;59;1143052;-68
2023/10/17 17:48:20;;;;;;;153.17;61.13;;;;;;;8.82;100.00;101136.88;4907243;57;1142903;-78
2023/10/17 17:53:27;;;;;;;143.40;56.37;;;;;;;8.80;100.00;101139.60;4804092;57;1145121;-75
2023/10/17 17:58:34;;;;;;;212.60;90.75;;;;;;;8.68;100.00;101128.48;4771073;59;1145311;-74
2023/10/17 18:03:40;;;;;;;149.23;69.23;;;;;;;8.58;100.00;101125.99;4765525;59;1143156;-85
2023/10/17 18:08:46;;;;;;;99.07;42.87;;;;;;;8.40;100.00;101121.84;4725161;59;1143392;-81
2023/10/17 18:13:52;;;;;;;107.60;44.77;;;;;;;8.27;100.00;101115.52;4757257;59;1140884;-80
2023/10/17 18:18:58;;;;;;;146.13;60.48;;;;;;;8.15;100.00;101121.52;4731927;59;1143057;-85
2023/10/17 18:24:06;;;;;;;146.57;60.50;;;;;;;8.04;100.00;101120.83;4866530;59;1143005;-81
2023/10/17 18:29:12;;;;;;;113.90;46.53;;;;;;;7.96;100.00;101112.03;4906588;57;1143059;-83
2023/10/17 18:34:21;;;;;;;153.10;62.30;;;;;;;7.91;100.00;101108.83;4791145;58;1145013;-76
2023/10/17 18:39:24;;;;;;;179.20;77.57;;;;;;;7.86;100.00;101099.02;4912102;57;1145246;-83
2023/10/17 18:44:30;;;;;;;150.53;69.70;;;;;;;7.86;100.00;101110.02;4790307;59;1154538;-81
2023/10/17 18:49:37;;;;;;;136.52;58.20;;;;;;;7.80;100.00;101101.98;4805319;59;1143098;-75
2023/10/17 18:54:43;;;;;;;146.72;57.13;;;;;;;7.74;100.00;101102.36;4792444;59;1143038;-79
2023/10/17 18:59:49;;;;;;;151.57;60.67;;;;;;;7.66;100.00;101101.92;4786581;60;1143082;-80
2023/10/17 19:04:54;;;;;;;166.13;60.70;;;;;;;7.41;100.00;101099.35;4878902;57;1143117;-74
2023/10/17 19:10:00;;;;;;;172.40;69.40;;;;;;;7.27;100.00;101104.52;4899022;57;1143114;-83
2023/10/17 19:15:07;;;;;;;156.43;61.20;;;;;;;7.12;100.00;101105.35;4741848;60;1143137;-77
2023/10/17 19:20:14;;;;;;;122.77;52.07;;;;;;;7.02;100.00;101102.84;4776681;60;1143098;-75
2023/10/17 19:25:19;;;;;;;208.43;79.40;;;;;;;6.92;100.00;101106.88;4861655;58;1145274;-76
2023/10/17 19:30:28;;;;;;;262.50;97.63;;;;;;;6.91;100.00;101101.23;4904425;58;1145132;-84
2023/10/17 19:35:33;;;;;;;224.20;85.67;;;;;;;6.91;100.00;101106.48;4904485;57;1145485;-82
2023/10/17 19:40:39;;;;;;;213.87;83.27;;;;;;;6.85;100.00;101101.57;4777923;58;1143027;-81
2023/10/17 19:45:46;;;;;;;140.60;63.00;;;;;;;6.83;100.00;101096.86;4707709;59;1143193;-76
2023/10/17 19:50:52;;;;;;;121.00;51.63;;;;;;;6.77;100.00;101098.48;4729481;59;1143132;-79
2023/10/17 19:55:57;;;;;;;121.20;55.10;;;;;;;6.68;100.00;101090.63;4786341;59;1143036;-71
2023/10/17 20:01:10;;;;;;;106.20;47.10;;;;;;;6.57;100.00;101088.53;4909539;58;1142905;-84
2023/10/17 20:06:17;;;;;;;108.63;45.00;;;;;;;6.47;100.00;101089.95;4909756;57;1143031;-76
2023/10/17 20:11:23;;;;;;;111.63;47.43;;;;;;;6.39;100.00;101088.66;4903693;57;1142940;-72
2023/10/17 20:16:33;;;;;;;114.27;50.40;;;;;;;6.39;100.00;101097.39;4934446;58;1143050;-73
2023/10/17 20:21:39;;;;;;;129.17;57.27;;;;;;;6.39;100.00;101084.25;4916255;58;1145946;-78
2023/10/17 20:26:44;;;;;;;165.45;61.75;;;;;;;6.40;100.00;101085.10;4754197;59;1143041;-86
2023/10/17 20:31:50;;;;;;;114.67;48.70;;;;;;;6.34;100.00;101081.00;4798275;60;1143012;-80
2023/10/17 20:36:56;;;;;;;115.50;48.83;;;;;;;6.16;100.00;101065.70;4912831;57;1143085;-81
2023/10/17 20:42:02;;;;;;;110.40;45.77;;;;;;;6.05;100.00;101081.63;4904611;58;1142994;-73
2023/10/17 20:47:08;;;;;;;108.83;44.87;;;;;;;5.97;100.00;101078.05;4813172;59;1143670;-73
2023/10/17 20:52:14;;;;;;;106.53;44.97;;;;;;;5.93;100.00;101066.88;4906511;58;1143152;-76
2023/10/17 20:57:20;;;;;;;92.87;40.27;;;;;;;5.84;100.00;101060.71;4917268;58;1142853;-78
2023/10/17 21:02:26;;;;;;;95.27;39.17;;;;;;;5.70;100.00;101056.61;4789735;60;1141184;-77
2023/10/17 21:07:32;;;;;;;69.50;33.80;;;;;;;5.59;100.00;101055.83;4927947;57;1150486;-73
2023/10/17 21:12:38;;;;;;;59.18;28.75;;;;;;;5.61;100.00;101048.73;4753336;59;1142966;-79
2023/10/17 21:17:43;;;;;;;106.73;45.60;;;;;;;5.68;100.00;101051.04;4790861;60;1141111;-72
2023/10/17 21:22:52;;;;;;;88.10;39.10;;;;;;;5.70;100.00;101043.95;4994385;57;1142851;-71
2023/10/17 21:27:56;;;;;;;83.53;38.93;;;;;;;5.64;100.00;101045.11;4926772;57;1140760;-80
2023/10/17 21:33:02;;;;;;;76.37;34.40;;;;;;;5.54;100.00;101045.16;4764354;59;1140917;-76
2023/10/17 21:38:08;;;;;;;87.50;38.73;;;;;;;5.45;100.00;101039.91;4915336;58;1141011;-79
2023/10/17 21:43:14;;;;;;;79.70;35.47;;;;;;;5.36;100.00;101041.64;4890915;57;1140887;-75
2023/10/17 21:48:19;;;;;;;75.23;33.63;;;;;;;5.27;100.00;101029.83;4906021;55;1141679;-78
2023/10/17 21:53:26;;;;;;;52.63;21.90;;;;;;;5.25;100.00;101034.75;4904340;57;1140960;-71
2023/10/17 21:58:39;;;;;;;36.80;16.43;;;;;;;5.18;100.00;101038.14;4923095;56;1140758;-76
2023/10/17 22:03:41;;;;;;;47.33;19.80;;;;;;;5.15;100.00;101042.67;4904632;58;1141026;-80
2023/10/17 22:08:48;;;;;;;67.72;27.27;;;;;;;5.09;100.00;101039.01;4895617;57;1142958;-78
2023/10/17 22:13:54;;;;;;;54.63;24.33;;;;;;;4.94;100.00;101033.55;4906013;58;1140896;-77
2023/10/17 22:19:01;;;;;;;54.60;23.75;;;;;;;4.88;100.00;101030.38;4790026;59;1140873;-78
2023/10/17 22:24:07;;;;;;;67.37;27.27;;;;;;;4.84;100.00;101027.50;4907690;58;1140898;-70
2023/10/17 22:29:13;;;;;;;81.43;31.13;;;;;;;4.76;100.00;101033.54;4809956;59;1140970;-77
2023/10/17 22:34:18;;;;;;;81.13;34.00;;;;;;;4.64;100.00;101030.17;4790864;59;1140872;-67
2023/10/17 22:39:24;;;;;;;88.03;35.77;;;;;;;4.59;100.00;101029.91;4809872;58;1141004;-78
2023/10/17 22:44:29;;;;;;;85.27;33.30;;;;;;;4.56;100.00;101023.52;4789219;59;1141149;-77
2023/10/17 22:49:35;;;;;;;67.07;26.10;;;;;;;4.56;100.00;101020.91;4810609;59;1143773;-72
2023/10/17 22:54:41;;;;;;;86.62;34.16;;;;;;;4.54;100.00;101023.19;4785655;59;1140875;-71
2023/10/17 22:59:48;;;;;;;70.20;25.37;;;;;;;4.52;100.00;101022.41;4788103;58;1141018;-82
2023/10/17 23:05:01;;;;;;;83.40;31.63;;;;;;;4.46;100.00;101018.28;4809300;59;1141048;-72
2023/10/17 23:10:03;;;;;;;72.07;27.10;;;;;;;4.42;100.00;101018.51;4795979;58;1141005;-81
2023/10/17 23:15:17;;;;;;;46.77;19.53;;;;;;;4.35;100.00;101016.59;4733006;59;1140985;-74
2023/10/17 23:20:20;;;;;;;55.43;20.37;;;;;;;4.31;100.00;101010.25;4789826;59;1140849;-78
2023/10/17 23:25:32;;;;;;;43.27;19.07;;;;;;;4.26;100.00;101007.85;4886712;58;1140952;-78
2023/10/17 23:30:33;;;;;;;30.03;14.17;;;;;;;4.19;100.00;101013.80;4882792;58;1141221;-77
2023/10/17 23:35:39;;;;;;;42.70;17.87;;;;;;;4.15;100.00;101010.06;4866358;58;1141407;-83
2023/10/17 23:40:46;;;;;;;44.57;17.90;;;;;;;4.20;100.00;101007.65;4790577;60;1141178;-75
2023/10/17 23:45:52;;;;;;;36.50;16.17;;;;;;;4.25;100.00;101006.15;4792102;60;1141460;-71
2023/10/17 23:50:58;;;;;;;33.20;16.83;;;;;;;4.26;100.00;101003.92;4809785;60;1140881;-77
2023/10/17 23:56:10;;;;;;;33.07;15.50;;;;;;;4.23;100.00;100997.05;4790243;60;1141222;-70
